Time;durP1;ratioP1;P1;durP2;ratioP2;P2;SDS_P1;SDS_P2;PMS_P1;PMS_P2;Temp;Humidity;BMP_temperature;BMP_pressure;BME280_temperature;BME280_humidity;BME280_pressure;Samples;Min_cycle;Max_cycle;Signal;HPM_P1;HPM_P2
2022/03/07 00:01:05;;;;;;;;;;;0.10;99.90;;;;;;5138745;27;20450;-69
2022/03/07 00:03:31;;;;;;;;;;;1.70;99.90;;;;;;5138695;27;19930;-72
2022/03/07 00:05:57;;;;;;;;;;;2.00;99.90;;;;;;5138646;27;19924;-69
2022/03/07 00:08:22;;;;;;;;;;;0.10;99.90;;;;;;5120269;27;19931;-69
2022/03/07 00:10:48;;;;;;;;;;;0.10;99.90;;;;;;5138540;27;19979;-69
2022/03/07 00:13:14;;;;;;;;;;;0.10;99.90;;;;;;5138570;27;20316;-69
2022/03/07 00:15:40;;;;;;;;;;;2.20;99.90;;;;;;5138610;27;20018;-69
2022/03/07 00:18:05;;;;;;;;;;;0.10;99.90;;;;;;5138411;27;19924;-69
2022/03/07 00:20:31;;;;;;;;;;;0.10;99.90;;;;;;5138532;27;20027;-69
2022/03/07 00:22:56;;;;;;;;;;;0.00;99.90;;;;;;5154584;27;19969;-69
2022/03/07 00:25:22;;;;;;;;;;;0.00;99.90;;;;;;5138299;27;20393;-71
2022/03/07 00:27:47;;;;;;;;;;;-0.10;99.90;;;;;;5138107;27;20026;-69
2022/03/07 00:30:15;;;;;;;;;;;-0.10;99.90;;;;;;5119695;27;19974;-71
2022/03/07 00:32:42;;;;;;;;;;;-0.30;99.90;;;;;;5138244;27;19971;-69
2022/03/07 00:35:07;;;;;;;;;;;-0.30;99.90;;;;;;5119994;27;19930;-70
2022/03/07 00:37:33;;;;;;;;;;;-0.30;99.90;;;;;;5119674;27;19924;-74
2022/03/07 00:39:58;;;;;;;;;;;-0.30;99.90;;;;;;5138021;27;20377;-69
2022/03/07 00:42:24;;;;;;;;;;;-0.40;99.90;;;;;;5138114;27;20374;-69
2022/03/07 00:44:49;;;;;;;;;;;-0.40;99.90;;;;;;5138050;27;19931;-70
2022/03/07 00:47:15;;;;;;;;;;;-0.20;99.90;;;;;;5119882;27;19923;-69
2022/03/07 00:49:40;;;;;;;;;;;0.00;99.90;;;;;;5137770;27;19924;-71
2022/03/07 00:52:06;;;;;;;;;;;-0.40;99.90;;;;;;5153810;27;20027;-69
2022/03/07 00:54:32;;;;;;;;;;;0.10;99.90;;;;;;5137451;27;19930;-69
2022/03/07 00:56:57;;;;;;;;;;;-0.40;99.90;;;;;;5153991;27;19927;-74
2022/03/07 00:59:23;;;;;;;;;;;1.70;99.90;;;;;;5137716;27;19924;-71
2022/03/07 01:01:48;;;;;;;;;;;0.30;99.90;;;;;;5137675;27;20404;-69
2022/03/07 01:04:14;;;;;;;;;;;1.00;99.90;;;;;;5137608;27;19924;-72
2022/03/07 01:06:39;;;;;;;;;;;-0.40;99.90;;;;;;5137531;27;20282;-69
2022/03/07 01:09:05;;;;;;;;;;;-0.50;99.90;;;;;;5136839;27;20277;-73
2022/03/07 01:11:30;;;;;;;;;;;-0.40;99.90;;;;;;5137531;27;19923;-69
2022/03/07 01:13:56;;;;;;;;;;;-0.40;99.90;;;;;;5137473;27;19930;-69
2022/03/07 01:16:21;;;;;;;;;;;-0.40;99.90;;;;;;5137440;27;19931;-70
2022/03/07 01:18:47;;;;;;;;;;;0.70;99.90;;;;;;5153830;27;19927;-68
2022/03/07 01:21:13;;;;;;;;;;;-0.30;99.90;;;;;;5137038;27;20403;-69
2022/03/07 01:23:38;;;;;;;;;;;-0.60;99.90;;;;;;5136974;27;19923;-69
2022/03/07 01:26:04;;;;;;;;;;;0.30;99.90;;;;;;5137263;27;20366;-69
2022/03/07 01:28:29;;;;;;;;;;;-0.80;99.90;;;;;;5119106;27;19931;-69
2022/03/07 01:30:55;;;;;;;;;;;1.00;99.90;;;;;;5137312;27;19923;-71
2022/03/07 01:33:20;;;;;;;;;;;-0.70;99.90;;;;;;5137135;27;20382;-73
2022/03/07 01:35:46;;;;;;;;;;;0.60;99.90;;;;;;5136965;27;20283;-69
2022/03/07 01:38:11;;;;;;;;;;;-1.00;99.90;;;;;;5136906;27;20320;-68
2022/03/07 01:40:37;;;;;;;;;;;-0.80;99.90;;;;;;5136608;27;20290;-70
2022/03/07 01:43:02;;;;;;;;;;;-0.80;99.90;;;;;;5118851;27;19923;-72
2022/03/07 01:45:28;;;;;;;;;;;0.50;99.90;;;;;;5118527;27;19980;-69
2022/03/07 01:47:53;;;;;;;;;;;-0.90;99.90;;;;;;5118431;27;20286;-71
2022/03/07 01:50:20;;;;;;;;;;;0.40;99.90;;;;;;5136776;27;19974;-71
2022/03/07 01:52:47;;;;;;;;;;;-1.00;99.90;;;;;;5136523;27;19931;-69
2022/03/07 01:55:13;;;;;;;;;;;-1.00;99.90;;;;;;5136311;27;19925;-69
2022/03/07 01:57:39;;;;;;;;;;;0.40;99.90;;;;;;5136693;27;20408;-70
2022/03/07 02:00:07;;;;;;;;;;;-1.10;99.90;;;;;;5118313;27;19923;-72
2022/03/07 02:02:33;;;;;;;;;;;-0.90;99.90;;;;;;5136508;27;20019;-69
2022/03/07 02:04:58;;;;;;;;;;;-1.00;99.90;;;;;;5152781;27;19996;-71
2022/03/07 02:07:24;;;;;;;;;;;-0.40;99.90;;;;;;5136350;27;19923;-69
2022/03/07 02:09:51;;;;;;;;;;;-0.60;99.90;;;;;;5135831;27;20033;-69
2022/03/07 02:12:16;;;;;;;;;;;-1.00;99.90;;;;;;5136349;27;20290;-69
2022/03/07 02:14:42;;;;;;;;;;;0.10;99.90;;;;;;5136398;27;19923;-73
2022/03/07 02:17:08;;;;;;;;;;;-0.40;99.90;;;;;;5118185;27;19996;-69
2022/03/07 02:19:34;;;;;;;;;;;-0.80;99.90;;;;;;5135847;27;19923;-69
2022/03/07 02:22:00;;;;;;;;;;;-1.10;99.90;;;;;;5135299;27;19931;-68
2022/03/07 02:24:26;;;;;;;;;;;0.60;99.90;;;;;;5135830;27;20459;-68
2022/03/07 02:26:56;;;;;;;;;;;1.10;99.90;;;;;;5135818;27;19958;-72
2022/03/07 02:29:21;;;;;;;;;;;-0.80;99.90;;;;;;5135956;27;20386;-71
2022/03/07 02:31:47;;;;;;;;;;;-1.10;99.90;;;;;;5152189;27;19923;-69
2022/03/07 02:34:12;;;;;;;;;;;-0.80;99.90;;;;;;5135844;27;19935;-73
2022/03/07 02:36:38;;;;;;;;;;;0.40;99.90;;;;;;5135752;27;19967;-69
2022/03/07 02:39:05;;;;;;;;;;;-0.30;99.90;;;;;;5151931;27;19923;-69
2022/03/07 02:41:30;;;;;;;;;;;1.10;99.90;;;;;;5117116;27;20017;-69
2022/03/07 02:43:56;;;;;;;;;;;-0.80;99.90;;;;;;5152181;27;19972;-68
2022/03/07 02:46:21;;;;;;;;;;;0.10;99.90;;;;;;5135667;27;19931;-69
2022/03/07 02:48:47;;;;;;;;;;;-0.80;99.90;;;;;;5117317;27;20010;-69
2022/03/07 02:51:12;;;;;;;;;;;-0.90;99.90;;;;;;5135474;27;19931;-69
2022/03/07 02:53:38;;;;;;;;;;;1.30;99.90;;;;;;5151681;27;19928;-67
2022/03/07 02:56:04;;;;;;;;;;;0.00;99.90;;;;;;5135306;27;19942;-69
2022/03/07 02:58:29;;;;;;;;;;;-1.00;99.90;;;;;;5083486;27;19984;-69
2022/03/07 03:00:55;;;;;;;;;;;0.70;99.90;;;;;;5135331;27;20018;-69
2022/03/07 03:03:20;;;;;;;;;;;1.00;99.90;;;;;;5135267;27;20020;-69
2022/03/07 03:05:46;;;;;;;;;;;-0.30;99.90;;;;;;5100054;27;19923;-70
2022/03/07 03:08:11;;;;;;;;;;;-1.00;99.90;;;;;;5151112;27;20119;-69
2022/03/07 03:10:37;;;;;;;;;;;-1.00;99.90;;;;;;5135122;27;19980;-69
2022/03/07 03:13:03;;;;;;;;;;;-1.00;99.90;;;;;;5134953;27;19930;-68
2022/03/07 03:15:29;;;;;;;;;;;0.20;99.90;;;;;;5135245;27;19930;-71
2022/03/07 03:17:54;;;;;;;;;;;-1.40;99.90;;;;;;5134793;27;19966;-69
2022/03/07 03:20:20;;;;;;;;;;;0.90;99.90;;;;;;5135100;27;19928;-70
2022/03/07 03:22:46;;;;;;;;;;;-1.30;99.90;;;;;;5135153;27;19930;-74
2022/03/07 03:25:14;;;;;;;;;;;-0.20;99.90;;;;;;5150890;27;19923;-69
2022/03/07 03:27:40;;;;;;;;;;;-1.30;99.90;;;;;;5150841;27;20041;-71
2022/03/07 03:30:06;;;;;;;;;;;-1.30;99.90;;;;;;5134963;27;19930;-69
2022/03/07 03:32:32;;;;;;;;;;;-1.30;99.90;;;;;;5151057;27;19935;-69
2022/03/07 03:34:58;;;;;;;;;;;0.00;99.90;;;;;;5134879;27;19928;-73
2022/03/07 03:37:26;;;;;;;;;;;-1.20;99.90;;;;;;5134856;27;19930;-72
2022/03/07 03:39:52;;;;;;;;;;;-0.60;99.90;;;;;;5116424;28;19927;-69
2022/03/07 03:42:17;;;;;;;;;;;-0.40;99.90;;;;;;5150969;27;20018;-72
2022/03/07 03:44:43;;;;;;;;;;;0.10;99.90;;;;;;5134865;28;19935;-69
2022/03/07 03:47:09;;;;;;;;;;;-3.50;99.90;;;;;;5134612;28;19946;-68
2022/03/07 03:49:34;;;;;;;;;;;-1.60;99.90;;;;;;5116676;28;19927;-74
2022/03/07 03:52:00;;;;;;;;;;;0.10;99.90;;;;;;5150937;27;19992;-69
2022/03/07 03:54:25;;;;;;;;;;;-1.40;99.90;;;;;;5134469;28;19924;-69
2022/03/07 03:56:51;;;;;;;;;;;-1.40;99.90;;;;;;5150880;27;20453;-70
2022/03/07 03:59:17;;;;;;;;;;;-1.40;99.90;;;;;;5116236;28;20314;-68
2022/03/07 04:01:45;;;;;;;;;;;-1.40;99.90;;;;;;5134569;28;19927;-69
2022/03/07 04:04:11;;;;;;;;;;;-1.50;99.90;;;;;;5116146;28;19923;-69
2022/03/07 04:06:37;;;;;;;;;;;-1.60;99.90;;;;;;5134561;28;19937;-71
2022/03/07 04:09:10;;;;;;;;;;;0.60;99.90;;;;;;5150853;27;19927;-68
2022/03/07 04:11:36;;;;;;;;;;;-1.60;99.90;;;;;;5115968;28;20294;-72
2022/03/07 04:14:02;;;;;;;;;;;-1.50;99.90;;;;;;5116222;28;19923;-69
2022/03/07 04:16:28;;;;;;;;;;;-0.50;99.90;;;;;;5116572;28;19934;-69
2022/03/07 04:18:53;;;;;;;;;;;-1.60;99.90;;;;;;5150758;27;19923;-70
2022/03/07 04:21:19;;;;;;;;;;;-0.40;99.90;;;;;;5115865;28;19981;-68
2022/03/07 04:23:44;;;;;;;;;;;-1.60;99.90;;;;;;5134367;28;19978;-69
2022/03/07 04:26:10;;;;;;;;;;;0.50;99.90;;;;;;5150565;27;19966;-68
2022/03/07 04:28:35;;;;;;;;;;;0.50;99.90;;;;;;5134223;28;19927;-68
2022/03/07 04:31:01;;;;;;;;;;;-0.50;99.90;;;;;;5134465;28;19930;-68
2022/03/07 04:33:27;;;;;;;;;;;-1.80;99.90;;;;;;5150615;27;19923;-71
2022/03/07 04:35:52;;;;;;;;;;;-1.90;99.90;;;;;;5134266;28;19923;-68
2022/03/07 04:38:18;;;;;;;;;;;-1.90;99.90;;;;;;5134216;28;20393;-68
2022/03/07 04:40:44;;;;;;;;;;;-2.00;99.90;;;;;;5134064;28;20298;-67
2022/03/07 04:43:09;;;;;;;;;;;-1.90;99.90;;;;;;5115917;28;19931;-72
2022/03/07 04:45:35;;;;;;;;;;;-1.90;99.90;;;;;;5119712;27;19931;-68
2022/03/07 04:48:00;;;;;;;;;;;0.00;99.90;;;;;;5138035;27;19924;-69
2022/03/07 04:50:26;;;;;;;;;;;0.10;99.90;;;;;;5154254;27;19929;-72
2022/03/07 04:52:51;;;;;;;;;;;-2.00;99.90;;;;;;5137838;27;19923;-68
2022/03/07 04:55:17;;;;;;;;;;;-2.00;99.90;;;;;;5118933;27;19930;-70
2022/03/07 04:57:45;;;;;;;;;;;0.60;99.90;;;;;;5137660;27;19969;-68
2022/03/07 05:00:12;;;;;;;;;;;-0.30;99.90;;;;;;5137560;27;19927;-68
2022/03/07 05:02:37;;;;;;;;;;;-1.80;99.90;;;;;;5119415;27;19931;-72
2022/03/07 05:05:03;;;;;;;;;;;-0.20;99.90;;;;;;5137718;27;19924;-70
2022/03/07 05:07:28;;;;;;;;;;;-1.70;99.90;;;;;;5137553;27;19924;-70
2022/03/07 05:09:54;;;;;;;;;;;-1.70;99.90;;;;;;5137292;27;19923;-69
2022/03/07 05:12:20;;;;;;;;;;;-1.70;99.90;;;;;;5153718;27;19976;-68
2022/03/07 05:14:45;;;;;;;;;;;-1.70;99.90;;;;;;5153652;27;19958;-69
2022/03/07 05:17:11;;;;;;;;;;;-1.10;99.90;;;;;;5137760;27;20374;-69
2022/03/07 05:19:36;;;;;;;;;;;-1.60;99.90;;;;;;5137231;27;19962;-68
2022/03/07 05:22:02;;;;;;;;;;;-1.60;99.90;;;;;;5137357;27;19924;-71
2022/03/07 05:24:27;;;;;;;;;;;-1.50;99.90;;;;;;5119061;27;19948;-70
2022/03/07 05:26:53;;;;;;;;;;;0.10;99.90;;;;;;5119070;27;19988;-69
2022/03/07 05:29:18;;;;;;;;;;;-1.50;99.90;;;;;;5137053;27;19930;-72
2022/03/07 05:31:44;;;;;;;;;;;-1.60;99.90;;;;;;5153568;27;20010;-68
2022/03/07 05:34:10;;;;;;;;;;;-1.50;99.90;;;;;;5118980;27;20297;-69
2022/03/07 05:36:35;;;;;;;;;;;-1.50;99.90;;;;;;5153179;27;19928;-67
2022/03/07 05:39:02;;;;;;;;;;;-1.50;99.90;;;;;;5153259;27;19972;-71
2022/03/07 05:41:28;;;;;;;;;;;-1.60;99.90;;;;;;5136832;27;20290;-68
2022/03/07 05:43:53;;;;;;;;;;;-1.40;99.90;;;;;;5136704;27;19967;-70
2022/03/07 05:46:19;;;;;;;;;;;-1.60;99.90;;;;;;5136651;27;20018;-68
2022/03/07 05:48:44;;;;;;;;;;;-1.50;99.90;;;;;;5118549;27;19923;-68
2022/03/07 05:51:10;;;;;;;;;;;-3.30;99.90;;;;;;5153003;27;19923;-72
2022/03/07 05:53:35;;;;;;;;;;;0.60;99.90;;;;;;5118435;27;19930;-67
2022/03/07 05:56:01;;;;;;;;;;;-1.60;99.90;;;;;;5117215;27;20366;-68
2022/03/07 05:58:27;;;;;;;;;;;-2.00;99.90;;;;;;5152931;27;20014;-69
2022/03/07 06:00:52;;;;;;;;;;;-0.30;99.90;;;;;;5152584;27;20335;-69
2022/03/07 06:03:18;;;;;;;;;;;-1.30;99.90;;;;;;5136639;27;20015;-71
2022/03/07 06:05:43;;;;;;;;;;;-0.40;99.90;;;;;;5136571;27;19923;-68
2022/03/07 06:08:09;;;;;;;;;;;-0.20;99.90;;;;;;5152790;27;20346;-68
2022/03/07 06:10:35;;;;;;;;;;;-1.40;99.90;;;;;;5135948;27;19923;-67
2022/03/07 06:13:01;;;;;;;;;;;-0.70;99.90;;;;;;5136141;27;19962;-69
2022/03/07 06:15:27;;;;;;;;;;;-1.50;99.90;;;;;;5152450;27;20015;-68
2022/03/07 06:17:53;;;;;;;;;;;-1.50;99.90;;;;;;5152146;27;19967;-69
2022/03/07 06:20:20;;;;;;;;;;;-0.50;99.90;;;;;;5136055;27;19976;-70
2022/03/07 06:22:45;;;;;;;;;;;-0.50;99.90;;;;;;5152223;27;19928;-68
2022/03/07 06:25:11;;;;;;;;;;;-0.90;99.90;;;;;;5136013;27;20438;-68
2022/03/07 06:27:37;;;;;;;;;;;-1.60;99.90;;;;;;5117709;27;19923;-71
2022/03/07 06:30:02;;;;;;;;;;;-1.50;99.90;;;;;;5135537;27;19930;-69
2022/03/07 06:32:28;;;;;;;;;;;-1.50;99.90;;;;;;5135736;27;19927;-71
2022/03/07 06:34:53;;;;;;;;;;;-1.50;99.90;;;;;;5117937;27;20039;-68
2022/03/07 06:37:19;;;;;;;;;;;-1.50;99.90;;;;;;5135756;27;20469;-69
2022/03/07 06:39:45;;;;;;;;;;;-1.60;99.90;;;;;;5117107;27;20455;-71
2022/03/07 06:42:10;;;;;;;;;;;-1.70;99.90;;;;;;5152123;27;20301;-69
2022/03/07 06:44:40;;;;;;;;;;;-1.70;99.90;;;;;;5135551;27;19923;-69
2022/03/07 06:47:09;;;;;;;;;;;-2.90;99.90;;;;;;5116887;27;20406;-68
2022/03/07 06:49:35;;;;;;;;;;;-1.70;99.90;;;;;;5135586;27;20013;-69
2022/03/07 06:52:00;;;;;;;;;;;-1.70;99.90;;;;;;5150835;27;20342;-72
2022/03/07 06:54:26;;;;;;;;;;;-0.10;99.90;;;;;;5135234;27;19974;-71
2022/03/07 06:56:51;;;;;;;;;;;-1.40;99.90;;;;;;5135486;27;19924;-71
2022/03/07 06:59:17;;;;;;;;;;;-1.60;99.90;;;;;;5135279;27;20351;-71
2022/03/07 07:01:42;;;;;;;;;;;-0.50;99.90;;;;;;5116840;27;19923;-68
2022/03/07 07:04:08;;;;;;;;;;;0.20;99.90;;;;;;5135118;27;20392;-69
2022/03/07 07:06:33;;;;;;;;;;;-0.20;99.90;;;;;;5116678;27;20283;-69
2022/03/07 07:08:59;;;;;;;;;;;-1.40;99.90;;;;;;5117226;27;19976;-69
2022/03/07 07:11:25;;;;;;;;;;;0.70;99.90;;;;;;5135071;27;19975;-71
2022/03/07 07:13:50;;;;;;;;;;;-1.20;99.90;;;;;;5135125;27;19923;-70
2022/03/07 07:16:16;;;;;;;;;;;-1.10;99.90;;;;;;5135110;27;19976;-71
2022/03/07 07:18:41;;;;;;;;;;;-1.30;99.90;;;;;;5134951;27;19923;-69
2022/03/07 07:21:07;;;;;;;;;;;0.60;99.90;;;;;;5135158;27;19981;-69
2022/03/07 07:23:34;;;;;;;;;;;-0.90;99.90;;;;;;5151036;27;19923;-71
2022/03/07 07:26:00;;;;;;;;;;;-0.90;99.90;;;;;;5134865;27;20374;-70
2022/03/07 07:28:25;;;;;;;;;;;-0.80;99.90;;;;;;5115306;27;19931;-69
2022/03/07 07:30:51;;;;;;;;;;;0.00;99.90;;;;;;5134745;27;19931;-68
2022/03/07 07:33:17;;;;;;;;;;;-0.70;99.90;;;;;;5116087;27;20002;-72
2022/03/07 07:35:42;;;;;;;;;;;-0.90;99.90;;;;;;5134832;27;19927;-70
2022/03/07 07:38:08;;;;;;;;;;;-0.60;99.90;;;;;;5134582;27;19980;-69
2022/03/07 07:40:34;;;;;;;;;;;1.60;99.90;;;;;;5116147;28;19930;-68
2022/03/07 07:43:00;;;;;;;;;;;0.10;99.90;;;;;;5134639;27;19923;-69
2022/03/07 07:45:25;;;;;;;;;;;-0.40;99.90;;;;;;5134473;27;19923;-71
2022/03/07 07:47:51;;;;;;;;;;;0.90;99.90;;;;;;5134602;28;19923;-69
2022/03/07 07:50:18;;;;;;;;;;;-0.30;99.90;;;;;;5116384;28;20039;-68
2022/03/07 07:52:43;;;;;;;;;;;-0.30;99.90;;;;;;5134651;28;19976;-69
2022/03/07 07:55:09;;;;;;;;;;;-0.20;99.90;;;;;;5134601;28;19962;-71
2022/03/07 07:57:35;;;;;;;;;;;-0.20;99.90;;;;;;5134387;28;19967;-69
2022/03/07 08:00:02;;;;;;;;;;;-0.10;99.90;;;;;;5149436;27;19923;-70
2022/03/07 08:02:28;;;;;;;;;;;-0.10;99.90;;;;;;5134240;28;20390;-69
2022/03/07 08:04:54;;;;;;;;;;;0.00;99.90;;;;;;5134288;28;20018;-68
2022/03/07 08:07:21;;;;;;;;;;;0.10;99.90;;;;;;5134399;28;19930;-69
2022/03/07 08:09:47;;;;;;;;;;;0.20;99.90;;;;;;5150434;27;19924;-69
2022/03/07 08:12:17;;;;;;;;;;;0.20;99.90;;;;;;5134329;28;19923;-69
2022/03/07 08:14:43;;;;;;;;;;;0.30;99.90;;;;;;5116245;28;19924;-69
2022/03/07 08:17:11;;;;;;;;;;;-1.60;99.90;;;;;;5150569;27;19923;-69
2022/03/07 08:19:37;;;;;;;;;;;0.50;99.90;;;;;;5118378;27;19923;-69
2022/03/07 08:22:04;;;;;;;;;;;0.70;99.90;;;;;;5138499;27;19927;-69
2022/03/07 08:24:36;;;;;;;;;;;0.60;99.90;;;;;;5138293;27;19931;-69
2022/03/07 08:27:03;;;;;;;;;;;0.60;99.90;;;;;;5138095;27;19923;-69
2022/03/07 08:29:30;;;;;;;;;;;0.70;99.90;;;;;;5120113;27;19981;-68
2022/03/07 08:31:57;;;;;;;;;;;0.80;99.90;;;;;;5154449;27;19927;-68
2022/03/07 08:34:23;;;;;;;;;;;0.80;99.90;;;;;;5137970;27;19935;-69
2022/03/07 08:36:49;;;;;;;;;;;0.90;99.90;;;;;;5138270;27;19930;-69
2022/03/07 08:39:16;;;;;;;;;;;0.90;99.90;;;;;;5138211;27;19984;-69
2022/03/07 08:41:42;;;;;;;;;;;1.60;99.90;;;;;;5119538;27;19923;-69
2022/03/07 08:44:09;;;;;;;;;;;1.00;99.90;;;;;;5119403;27;19923;-73
2022/03/07 08:46:35;;;;;;;;;;;1.10;99.90;;;;;;5119819;27;19931;-69
2022/03/07 08:49:02;;;;;;;;;;;1.20;99.90;;;;;;5119426;27;19923;-71
2022/03/07 08:51:29;;;;;;;;;;;1.30;99.90;;;;;;5137269;27;19953;-72
2022/03/07 08:53:57;;;;;;;;;;;1.40;99.90;;;;;;5137048;27;19976;-70
2022/03/07 08:56:25;;;;;;;;;;;1.50;99.90;;;;;;5153421;27;19923;-73
2022/03/07 08:58:53;;;;;;;;;;;1.60;99.90;;;;;;5137468;27;20014;-70
2022/03/07 09:01:20;;;;;;;;;;;1.70;99.90;;;;;;5137165;27;19927;-69
2022/03/07 09:03:47;;;;;;;;;;;1.90;99.90;;;;;;5137281;27;19923;-69
2022/03/07 09:06:15;;;;;;;;;;;2.00;99.90;;;;;;5119463;27;19923;-70
2022/03/07 09:08:41;;;;;;;;;;;2.10;99.90;;;;;;5137078;27;19923;-71
2022/03/07 09:11:08;;;;;;;;;;;2.20;99.90;;;;;;5136714;27;19991;-73
2022/03/07 09:13:36;;;;;;;;;;;2.40;99.90;;;;;;5136970;27;20361;-72
2022/03/07 09:16:03;;;;;;;;;;;2.40;99.90;;;;;;5153324;27;20394;-70
2022/03/07 09:18:30;;;;;;;;;;;2.50;99.90;;;;;;5137125;27;19928;-70
2022/03/07 09:20:57;;;;;;;;;;;2.60;99.90;;;;;;5118549;27;19923;-70
2022/03/07 09:23:23;;;;;;;;;;;2.70;99.90;;;;;;5136956;27;19931;-72
2022/03/07 09:25:50;;;;;;;;;;;2.80;99.90;;;;;;5118698;27;20018;-72
2022/03/07 09:28:17;;;;;;;;;;;2.90;99.90;;;;;;5136578;27;19924;-70
2022/03/07 09:30:45;;;;;;;;;;;3.00;99.90;;;;;;5136429;27;20412;-70
2022/03/07 09:33:12;;;;;;;;;;;3.00;99.90;;;;;;5138687;27;19935;-73
2022/03/07 09:35:41;;;;;;;;;;;3.20;99.90;;;;;;5115687;27;19935;-69
2022/03/07 09:38:08;;;;;;;;;;;3.20;99.90;;;;;;5116204;28;19924;-70
2022/03/07 09:40:36;;;;;;;;;;;3.30;99.90;;;;;;5131854;27;19967;-70
2022/03/07 09:43:03;;;;;;;;;;;3.30;99.90;;;;;;5115872;28;20321;-69
2022/03/07 09:45:30;;;;;;;;;;;3.50;99.90;;;;;;5132112;27;19924;-70
2022/03/07 09:47:59;;;;;;;;;;;3.50;99.90;;;;;;5115740;28;20438;-72
2022/03/07 09:50:26;;;;;;;;;;;3.60;99.90;;;;;;5115583;28;19931;-72
2022/03/07 09:52:56;;;;;;;;;;;3.80;99.90;;;;;;5097874;28;19924;-69
2022/03/07 09:55:23;;;;;;;;;;;4.00;99.90;;;;;;5097341;28;19934;-70
2022/03/07 09:57:50;;;;;;;;;;;4.10;99.90;;;;;;5115487;28;20022;-70
2022/03/07 10:00:18;;;;;;;;;;;4.20;99.90;;;;;;5115518;28;19969;-69
2022/03/07 10:02:57;;;;;;;;;;;4.20;99.90;;;;;;5131873;27;20405;-71
2022/03/07 10:05:28;;;;;;;;;;;4.20;99.90;;;;;;5115562;28;19946;-73
2022/03/07 10:07:55;;;;;;;;;;;4.30;99.90;;;;;;5115316;28;20107;-70
2022/03/07 10:10:23;;;;;;;;;;;4.30;99.90;;;;;;5096918;28;20279;-70
2022/03/07 10:12:50;;;;;;;;;;;4.30;99.90;;;;;;5097469;28;19924;-70
2022/03/07 10:15:21;;;;;;;;;;;4.50;99.90;;;;;;5115143;28;19931;-73
2022/03/07 10:17:49;;;;;;;;;;;4.70;99.90;;;;;;5115513;28;20382;-73
2022/03/07 10:20:19;;;;;;;;;;;4.80;99.90;;;;;;5115205;28;20350;-70
2022/03/07 10:22:53;;;;;;;;;;;5.00;99.90;;;;;;5114965;28;19931;-71
2022/03/07 10:25:24;;;;;;;;;;;5.10;99.90;;;;;;5131395;27;19980;-73
2022/03/07 10:27:51;;;;;;;;;;;5.20;99.90;;;;;;5115012;28;20340;-68
2022/03/07 10:30:21;;;;;;;;;;;5.30;99.90;;;;;;5114977;28;19978;-71
2022/03/07 10:32:52;;;;;;;;;;;5.40;99.90;;;;;;5096720;28;19924;-71
2022/03/07 10:35:26;;;;;;;;;;;5.50;99.90;;;;;;5114977;28;19927;-71
2022/03/07 10:37:58;;;;;;;;;;;5.50;99.90;;;;;;5114635;28;20018;-73
2022/03/07 10:40:26;;;;;;;;;;;5.60;99.90;;;;;;5114639;28;19924;-70
2022/03/07 10:42:55;;;;;;;;;;;5.70;99.90;;;;;;5114204;28;20014;-70
2022/03/07 10:45:23;;;;;;;;;;;5.80;99.90;;;;;;5114925;28;20406;-70
2022/03/07 10:47:52;;;;;;;;;;;5.80;99.90;;;;;;5114870;28;19931;-75
2022/03/07 10:50:20;;;;;;;;;;;5.90;99.90;;;;;;5114709;28;20279;-71
2022/03/07 10:52:46;;;;;;;;;;;6.00;99.90;;;;;;5114312;28;19984;-70
2022/03/07 10:55:15;;;;;;;;;;;6.20;99.90;;;;;;5096595;28;20345;-74
2022/03/07 10:57:42;;;;;;;;;;;6.20;99.90;;;;;;5114640;28;19931;-70
2022/03/07 11:00:10;;;;;;;;;;;6.30;99.90;;;;;;5114485;28;19932;-71
2022/03/07 11:02:37;;;;;;;;;;;6.30;99.90;;;;;;5114500;28;19931;-72
2022/03/07 11:05:07;;;;;;;;;;;6.40;99.90;;;;;;5114434;28;20370;-69
2022/03/07 11:07:34;;;;;;;;;;;6.50;99.90;;;;;;5114263;28;19927;-72
2022/03/07 11:10:01;;;;;;;;;;;6.60;99.90;;;;;;5114083;28;20268;-70
2022/03/07 11:12:29;;;;;;;;;;;6.60;99.90;;;;;;5114530;28;20124;-76
2022/03/07 11:14:57;;;;;;;;;;;6.80;99.90;;;;;;5114294;28;20378;-74
2022/03/07 11:17:25;;;;;;;;;;;6.90;99.90;;;;;;5095992;28;20007;-71
2022/03/07 11:19:54;;;;;;;;;;;7.00;99.90;;;;;;5096072;28;19927;-70
2022/03/07 11:22:20;;;;;;;;;;;7.10;99.90;;;;;;5113845;28;19923;-71
2022/03/07 11:24:47;;;;;;;;;;;7.20;99.90;;;;;;5096063;28;19963;-70
2022/03/07 11:27:16;;;;;;;;;;;7.30;99.90;;;;;;5079436;28;19930;-72
2022/03/07 11:29:43;;;;;;;;;;;7.40;99.90;;;;;;5114466;28;19931;-72
2022/03/07 11:32:11;;;;;;;;;;;7.40;99.90;;;;;;5114055;28;20057;-70
2022/03/07 11:34:37;;;;;;;;;;;7.40;99.90;;;;;;5095980;28;19930;-69
2022/03/07 11:37:15;;;;;;;;;;;7.50;99.90;;;;;;5113729;28;19924;-70
2022/03/07 11:39:42;;;;;;;;;;;8.30;99.90;;;;;;5113994;28;19931;-70
2022/03/07 11:42:09;;;;;;;;;;;7.40;99.90;;;;;;5113796;28;19924;-69
2022/03/07 11:44:36;;;;;;;;;;;7.40;99.90;;;;;;5113874;28;20401;-73
2022/03/07 11:47:11;;;;;;;;;;;7.60;99.90;;;;;;5113879;28;19931;-69
2022/03/07 11:49:38;;;;;;;;;;;7.60;99.90;;;;;;5113639;28;19969;-72
2022/03/07 11:52:06;;;;;;;;;;;7.70;99.90;;;;;;5113664;28;20402;-69
2022/03/07 11:54:33;;;;;;;;;;;7.80;99.90;;;;;;5117969;28;19935;-71
2022/03/07 11:57:07;;;;;;;;;;;7.90;99.90;;;;;;5118061;28;19946;-72
2022/03/07 11:59:34;;;;;;;;;;;7.90;99.90;;;;;;5117951;28;20386;-69
2022/03/07 12:02:00;;;;;;;;;;;7.90;96.20;;;;;;5117719;28;19924;-71
2022/03/07 12:04:37;;;;;;;;;;;7.90;99.90;;;;;;5135853;27;19930;-71
2022/03/07 12:07:04;;;;;;;;;;;7.80;97.40;;;;;;5159237;27;19931;-68
2022/03/07 12:09:32;;;;;;;;;;;7.80;93.80;;;;;;5159049;27;19923;-70
2022/03/07 12:12:02;;;;;;;;;;;7.80;89.00;;;;;;5159122;27;19927;-70
2022/03/07 12:14:29;;;;;;;;;;;7.90;96.00;;;;;;5158923;27;20351;-70
2022/03/07 12:16:58;;;;;;;;;;;7.80;99.90;;;;;;5158865;27;19927;-70
2022/03/07 12:19:25;;;;;;;;;;;7.80;99.00;;;;;;5159117;27;19923;-73
2022/03/07 12:21:52;;;;;;;;;;;7.80;96.10;;;;;;5158667;27;20328;-71
2022/03/07 12:24:21;;;;;;;;;;;7.80;99.90;;;;;;5158825;27;19974;-73
2022/03/07 12:26:56;;;;;;;;;;;7.90;99.90;;;;;;5158597;27;19930;-71
2022/03/07 12:29:24;;;;;;;;;;;7.90;99.90;;;;;;5140103;27;19923;-71
2022/03/07 12:31:52;;;;;;;;;;;7.90;99.90;;;;;;5140451;27;19923;-71
2022/03/07 12:34:20;;;;;;;;;;;7.80;97.60;;;;;;5159072;27;19927;-70
2022/03/07 12:36:55;;;;;;;;;;;7.80;99.90;;;;;;5158799;27;20293;-73
2022/03/07 12:39:21;;;;;;;;;;;7.70;92.40;;;;;;5158633;27;19923;-70
2022/03/07 12:41:49;;;;;;;;;;;7.70;99.90;;;;;;5158197;27;19923;-70
2022/03/07 12:44:15;;;;;;;;;;;7.60;97.50;;;;;;5158146;27;19973;-71
2022/03/07 12:46:41;;;;;;;;;;;7.70;97.90;;;;;;5158713;27;19930;-70
2022/03/07 12:49:08;;;;;;;;;;;7.70;83.10;;;;;;5158486;27;20382;-70
2022/03/07 12:51:37;;;;;;;;;;;7.70;98.00;;;;;;5158064;27;19929;-72
2022/03/07 12:54:03;;;;;;;;;;;7.80;96.70;;;;;;5158226;27;19938;-71
2022/03/07 12:56:47;;;;;;;;;;;7.80;92.50;;;;;;5139596;27;19929;-70
2022/03/07 12:59:13;;;;;;;;;;;7.90;90.60;;;;;;5158399;27;19923;-69
2022/03/07 13:01:48;;;;;;;;;;;7.90;91.50;;;;;;5158276;27;20013;-71
2022/03/07 13:04:18;;;;;;;;;;;7.80;83.10;;;;;;5157405;27;19923;-70
2022/03/07 13:06:48;;;;;;;;;;;7.90;75.60;;;;;;5139819;27;20009;-70
2022/03/07 13:09:16;;;;;;;;;;;7.90;76.50;;;;;;5157850;27;19923;-72
2022/03/07 13:11:47;;;;;;;;;;;7.90;77.30;;;;;;5157721;27;20014;-70
2022/03/07 13:14:21;;;;;;;;;;;8.80;75.90;;;;;;5157884;27;19975;-71
2022/03/07 13:16:48;;;;;;;;;;;7.90;73.70;;;;;;5158043;27;19930;-72
2022/03/07 13:19:15;;;;;;;;;;;7.90;85.30;;;;;;5157642;27;20334;-69
2022/03/07 13:21:45;;;;;;;;;;;7.80;77.90;;;;;;5139155;27;19972;-70
2022/03/07 13:24:16;;;;;;;;;;;7.90;88.50;;;;;;5157350;27;19927;-70
2022/03/07 13:26:43;;;;;;;;;;;7.90;96.10;;;;;;5157675;27;19958;-76
2022/03/07 13:29:13;;;;;;;;;;;7.90;87.30;;;;;;5157710;27;19927;-72
2022/03/07 13:31:44;;;;;;;;;;;7.90;73.60;;;;;;5139336;27;19923;-71
2022/03/07 13:34:12;;;;;;;;;;;7.80;75.80;;;;;;5157786;27;20019;-71
2022/03/07 13:36:47;;;;;;;;;;;7.80;69.80;;;;;;5157633;27;19978;-70
2022/03/07 13:39:18;;;;;;;;;;;7.80;65.20;;;;;;5157730;27;19927;-70
2022/03/07 13:42:05;;;;;;;;;;;7.90;72.90;;;;;;5138664;27;19923;-74
2022/03/07 13:44:32;;;;;;;;;;;7.90;70.00;;;;;;5139145;27;19923;-72
2022/03/07 13:46:59;;;;;;;;;;;7.90;68.40;;;;;;5157406;27;19923;-70
2022/03/07 13:49:28;;;;;;;;;;;7.90;72.30;;;;;;5156936;27;19977;-70
2022/03/07 13:51:58;;;;;;;;;;;7.90;66.80;;;;;;5157600;27;20018;-72
2022/03/07 13:54:36;;;;;;;;;;;7.90;70.00;;;;;;5156940;27;20056;-71
2022/03/07 13:57:06;;;;;;;;;;;7.90;71.50;;;;;;5157231;27;20018;-71
2022/03/07 13:59:33;;;;;;;;;;;7.90;67.80;;;;;;5157071;27;19927;-69
2022/03/07 14:02:00;;;;;;;;;;;7.80;65.50;;;;;;5155741;27;20060;-70
2022/03/07 14:04:26;;;;;;;;;;;7.80;62.60;;;;;;5156875;27;19923;-70
2022/03/07 14:07:04;;;;;;;;;;;7.90;64.80;;;;;;5138512;27;20018;-69
2022/03/07 14:09:31;;;;;;;;;;;7.90;63.70;;;;;;5156778;27;20341;-70
2022/03/07 14:12:02;;;;;;;;;;;7.90;62.80;;;;;;5156645;27;19967;-70
2022/03/07 14:14:29;;;;;;;;;;;7.90;64.70;;;;;;5156783;27;19934;-70
2022/03/07 14:16:56;;;;;;;;;;;8.00;64.90;;;;;;5155612;27;19946;-70
2022/03/07 14:19:23;;;;;;;;;;;8.00;61.60;;;;;;5156533;27;20017;-71
2022/03/07 14:21:51;;;;;;;;;;;7.90;61.70;;;;;;5156802;27;20059;-72